JBU932 KIAH-KBOS
Flight info
| Callsign | JBU932 |
|---|---|
| Flight time | N/A |
| Altitude | 35000 |
| Route | MMUGS4 GUSTI Q22 RBV Q419 JFK ROBUC3 |
| Aircraft | A320/M-VGDW/C |
Departure
| Time | 2026-05-06 18:05 |
|---|---|
| Airport | George Bush Intercontinental Airport (KIAH) |
Arrival
| Time | N/A |
|---|---|
| Airport | Boston Logan International Airport (KBOS) |
| Time | Latitude | Longitude | Altitude | Speed | Heading |
|---|---|---|---|---|---|
| 2026-05-06 17:17 | 29.98491 | -95.34987 | 112 ft | 0 kts | 71° |
| 2026-05-06 17:56 | 29.98491 | -95.34988 | 112 ft | 0 kts | 71° |
| 2026-05-06 17:56 | 29.98487 | -95.35002 | 112 ft | 3 kts | 71° |
| 2026-05-06 17:56 | 29.98480 | -95.35024 | 112 ft | 3 kts | 71° |
| 2026-05-06 17:57 | 29.98474 | -95.35046 | 112 ft | 3 kts | 71° |
| 2026-05-06 17:57 | 29.98467 | -95.35068 | 112 ft | 3 kts | 71° |
| 2026-05-06 17:57 | 29.98462 | -95.35085 | 112 ft | 1 kts | 71° |
| 2026-05-06 17:59 | 29.98463 | -95.35072 | 112 ft | 2 kts | 99° |
| 2026-05-06 18:00 | 29.98447 | -95.35059 | 112 ft | 4 kts | 176° |
| 2026-05-06 18:00 | 29.98414 | -95.35072 | 112 ft | 6 kts | 211° |
| 2026-05-06 18:00 | 29.98383 | -95.35115 | 112 ft | 8 kts | 248° |
| 2026-05-06 18:00 | 29.98386 | -95.35187 | 112 ft | 10 kts | 295° |
| 2026-05-06 18:01 | 29.98446 | -95.35241 | 112 ft | 12 kts | 332° |
| 2026-05-06 18:01 | 29.98544 | -95.35301 | 112 ft | 19 kts | 332° |
| 2026-05-06 18:01 | 29.98666 | -95.35375 | 112 ft | 21 kts | 333° |
| 2026-05-06 18:01 | 29.98801 | -95.35458 | 112 ft | 22 kts | 332° |
| 2026-05-06 18:02 | 29.98881 | -95.35528 | 112 ft | 12 kts | 280° |
| 2026-05-06 18:02 | 29.98852 | -95.35623 | 112 ft | 14 kts | 238° |
| 2026-05-06 18:02 | 29.98829 | -95.35671 | 112 ft | 0 kts | 242° |
| 2026-05-06 18:03 | 29.98829 | -95.35672 | 112 ft | 1 kts | 242° |
| 2026-05-06 18:03 | 29.98812 | -95.35707 | 112 ft | 11 kts | 241° |
| 2026-05-06 18:04 | 29.98745 | -95.35752 | 112 ft | 13 kts | 170° |
| 2026-05-06 18:04 | 29.98658 | -95.35707 | 112 ft | 15 kts | 153° |
| 2026-05-06 18:04 | 29.98474 | -95.35595 | 112 ft | 59 kts | 152° |
| 2026-05-06 18:04 | 29.97919 | -95.35252 | 112 ft | 120 kts | 153° |
| 2026-05-06 18:05 | 29.97037 | -95.34710 | 159 ft | 160 kts | 152° |
| 2026-05-06 18:05 | 29.96070 | -95.34040 | 606 ft | 164 kts | 141° |
| 2026-05-06 18:05 | 29.95282 | -95.33046 | 1056 ft | 178 kts | 128° |
| 2026-05-06 18:05 | 29.94505 | -95.31834 | 1380 ft | 195 kts | 127° |
| 2026-05-06 18:06 | 29.93666 | -95.30550 | 1786 ft | 207 kts | 133° |
| 2026-05-06 18:06 | 29.92623 | -95.29301 | 2164 ft | 224 kts | 136° |
| 2026-05-06 18:06 | 29.91565 | -95.27931 | 2647 ft | 239 kts | 131° |
| 2026-05-06 18:06 | 29.90510 | -95.26370 | 3160 ft | 254 kts | 130° |
| 2026-05-06 18:07 | 29.89410 | -95.24720 | 3759 ft | 264 kts | 131° |
| 2026-05-06 18:07 | 29.88278 | -95.23015 | 4486 ft | 270 kts | 130° |
| 2026-05-06 18:07 | 29.87166 | -95.21265 | 5321 ft | 271 kts | 129° |
| 2026-05-06 18:07 | 29.86074 | -95.19498 | 6112 ft | 273 kts | 129° |
| 2026-05-06 18:08 | 29.84963 | -95.17694 | 6793 ft | 278 kts | 129° |
| 2026-05-06 18:08 | 29.83829 | -95.15869 | 7484 ft | 282 kts | 130° |
| 2026-05-06 18:08 | 29.82832 | -95.14183 | 8075 ft | 288 kts | 123° |
| 2026-05-06 18:08 | 29.82163 | -95.11855 | 8720 ft | 300 kts | 101° |
| 2026-05-06 18:09 | 29.82032 | -95.09469 | 9355 ft | 305 kts | 95° |
| 2026-05-06 18:09 | 29.82018 | -95.07007 | 9947 ft | 310 kts | 94° |
| 2026-05-06 18:09 | 29.81995 | -95.04492 | 10390 ft | 321 kts | 95° |
| 2026-05-06 18:09 | 29.81918 | -95.01870 | 10679 ft | 335 kts | 96° |
| 2026-05-06 18:10 | 29.81803 | -94.99139 | 10960 ft | 349 kts | 96° |
| 2026-05-06 18:10 | 29.81845 | -94.96279 | 11185 ft | 365 kts | 90° |
| 2026-05-06 18:10 | 29.82011 | -94.93299 | 11374 ft | 381 kts | 88° |
| 2026-05-06 18:10 | 29.82239 | -94.90200 | 11557 ft | 395 kts | 88° |
| 2026-05-06 18:11 | 29.82482 | -94.87011 | 11869 ft | 403 kts | 88° |
| 2026-05-06 18:11 | 29.82710 | -94.83785 | 12368 ft | 405 kts | 88° |
| 2026-05-06 18:11 | 29.82915 | -94.80580 | 12836 ft | 408 kts | 88° |
| 2026-05-06 18:11 | 29.83111 | -94.77305 | 13298 ft | 411 kts | 88° |
| 2026-05-06 18:12 | 29.83314 | -94.74004 | 13733 ft | 415 kts | 88° |
| 2026-05-06 18:12 | 29.83540 | -94.70670 | 14151 ft | 420 kts | 87° |
| 2026-05-06 18:12 | 29.83789 | -94.67307 | 14575 ft | 424 kts | 87° |
| 2026-05-06 18:12 | 29.84043 | -94.63912 | 14988 ft | 427 kts | 87° |
| 2026-05-06 18:13 | 29.84293 | -94.60490 | 15416 ft | 430 kts | 87° |
| 2026-05-06 18:13 | 29.84534 | -94.57040 | 15833 ft | 434 kts | 87° |
| 2026-05-06 18:13 | 29.84768 | -94.53563 | 16242 ft | 438 kts | 87° |
| 2026-05-06 18:13 | 29.85002 | -94.50054 | 16648 ft | 441 kts | 87° |
| 2026-05-06 18:14 | 29.85238 | -94.46563 | 17044 ft | 445 kts | 87° |
| 2026-05-06 18:14 | 29.85481 | -94.42997 | 17441 ft | 448 kts | 86° |
| 2026-05-06 18:14 | 29.85726 | -94.39405 | 17824 ft | 452 kts | 86° |
| 2026-05-06 18:14 | 29.85971 | -94.35781 | 18209 ft | 456 kts | 86° |
| 2026-05-06 18:15 | 29.86183 | -94.32126 | 18587 ft | 459 kts | 90° |
| 2026-05-06 18:15 | 29.86151 | -94.28446 | 18977 ft | 461 kts | 93° |
| 2026-05-06 18:15 | 29.86043 | -94.24742 | 19357 ft | 464 kts | 94° |
| 2026-05-06 18:15 | 29.85898 | -94.21019 | 19731 ft | 467 kts | 95° |
| 2026-05-06 18:16 | 29.85749 | -94.17273 | 20094 ft | 470 kts | 94° |
| 2026-05-06 18:16 | 29.85621 | -94.13547 | 20449 ft | 473 kts | 94° |
| 2026-05-06 18:16 | 29.85511 | -94.09750 | 20797 ft | 476 kts | 94° |
| 2026-05-06 18:16 | 29.85410 | -94.05928 | 21142 ft | 479 kts | 93° |
| 2026-05-06 18:17 | 29.85582 | -94.02081 | 21466 ft | 483 kts | 85° |
| 2026-05-06 18:17 | 29.85957 | -93.98216 | 21798 ft | 486 kts | 84° |
| 2026-05-06 18:17 | 29.86397 | -93.94344 | 22121 ft | 489 kts | 83° |
| 2026-05-06 18:17 | 29.86862 | -93.90451 | 22438 ft | 492 kts | 83° |
| 2026-05-06 18:18 | 29.87312 | -93.86535 | 22746 ft | 495 kts | 84° |
| 2026-05-06 18:18 | 29.87729 | -93.82642 | 23010 ft | 498 kts | 85° |
| 2026-05-06 18:18 | 29.88129 | -93.78668 | 23294 ft | 501 kts | 86° |
| 2026-05-06 18:18 | 29.88527 | -93.74668 | 23594 ft | 503 kts | 85° |
| 2026-05-06 18:19 | 29.88939 | -93.70655 | 23891 ft | 506 kts | 85° |
| 2026-05-06 18:19 | 29.89368 | -93.66627 | 24182 ft | 508 kts | 85° |
| 2026-05-06 18:19 | 29.89804 | -93.62576 | 24449 ft | 511 kts | 85° |
| 2026-05-06 18:19 | 29.90237 | -93.58507 | 24718 ft | 513 kts | 85° |
| 2026-05-06 18:20 | 29.90662 | -93.54416 | 24983 ft | 515 kts | 85° |
| 2026-05-06 18:20 | 29.91082 | -93.50305 | 25238 ft | 518 kts | 85° |
| 2026-05-06 18:20 | 29.91503 | -93.46175 | 25498 ft | 520 kts | 85° |
| 2026-05-06 18:20 | 29.91928 | -93.42027 | 25752 ft | 522 kts | 85° |
| 2026-05-06 18:21 | 29.92352 | -93.37918 | 25998 ft | 524 kts | 85° |
| 2026-05-06 18:21 | 29.92785 | -93.33734 | 26242 ft | 527 kts | 85° |
| 2026-05-06 18:21 | 29.93215 | -93.29532 | 26490 ft | 529 kts | 85° |
| 2026-05-06 18:21 | 29.93643 | -93.25312 | 26753 ft | 531 kts | 85° |
| 2026-05-06 18:22 | 29.94071 | -93.21077 | 26976 ft | 533 kts | 85° |
| 2026-05-06 18:22 | 29.94501 | -93.16818 | 27209 ft | 536 kts | 85° |
| 2026-05-06 18:22 | 29.94932 | -93.12547 | 27443 ft | 538 kts | 85° |
| 2026-05-06 18:22 | 29.95362 | -93.08258 | 27670 ft | 540 kts | 85° |
| 2026-05-06 18:23 | 29.95794 | -93.03951 | 27893 ft | 542 kts | 85° |
| 2026-05-06 18:23 | 29.96224 | -92.99626 | 28095 ft | 544 kts | 85° |
| 2026-05-06 18:23 | 29.96649 | -92.95343 | 28346 ft | 545 kts | 85° |
| 2026-05-06 18:23 | 29.97117 | -92.91010 | 28635 ft | 546 kts | 82° |
| 2026-05-06 18:24 | 29.97867 | -92.86715 | 28931 ft | 546 kts | 79° |
| 2026-05-06 18:24 | 29.98694 | -92.82436 | 29206 ft | 547 kts | 78° |
| 2026-05-06 18:24 | 29.99558 | -92.78163 | 29470 ft | 547 kts | 77° |
| 2026-05-06 18:24 | 30.00428 | -92.73893 | 29745 ft | 548 kts | 78° |
| 2026-05-06 18:25 | 30.02114 | -92.65240 | 30015 ft | 555 kts | 78° |
| 2026-05-06 18:25 | 30.02926 | -92.60913 | 30504 ft | 549 kts | 78° |
| 2026-05-06 18:25 | 30.03739 | -92.56606 | 30774 ft | 550 kts | 78° |
| 2026-05-06 18:26 | 30.04561 | -92.52341 | 30973 ft | 552 kts | 78° |
| 2026-05-06 18:26 | 30.05400 | -92.48032 | 31333 ft | 550 kts | 77° |
| 2026-05-06 18:26 | 30.06237 | -92.43729 | 31626 ft | 549 kts | 77° |
| 2026-05-06 18:26 | 30.07065 | -92.39425 | 31881 ft | 549 kts | 77° |
| 2026-05-06 18:27 | 30.07885 | -92.35118 | 32169 ft | 549 kts | 77° |
| 2026-05-06 18:27 | 30.08700 | -92.30817 | 32411 ft | 549 kts | 77° |
| 2026-05-06 18:27 | 30.09516 | -92.26508 | 32678 ft | 549 kts | 77° |
| 2026-05-06 18:27 | 30.10333 | -92.22203 | 32957 ft | 548 kts | 77° |
| 2026-05-06 18:28 | 30.11150 | -92.17911 | 33234 ft | 547 kts | 77° |
| 2026-05-06 18:28 | 30.11966 | -92.13616 | 33458 ft | 547 kts | 77° |
| 2026-05-06 18:28 | 30.12777 | -92.09327 | 33713 ft | 547 kts | 77° |
| 2026-05-06 18:28 | 30.13585 | -92.05031 | 33915 ft | 547 kts | 77° |
| 2026-05-06 18:29 | 30.14379 | -92.00798 | 34153 ft | 547 kts | 77° |
| 2026-05-06 18:29 | 30.15184 | -91.96503 | 34384 ft | 546 kts | 77° |
| 2026-05-06 18:29 | 30.15989 | -91.92217 | 34608 ft | 546 kts | 77° |
| 2026-05-06 18:29 | 30.16794 | -91.87933 | 34835 ft | 545 kts | 77° |
| 2026-05-06 18:30 | 30.17595 | -91.83653 | 34983 ft | 544 kts | 77° |
| 2026-05-06 18:30 | 30.18388 | -91.79391 | 34986 ft | 542 kts | 77° |
| 2026-05-06 18:30 | 30.19971 | -91.70866 | 34991 ft | 543 kts | 77° |
| 2026-05-06 18:31 | 30.21541 | -91.62388 | 34991 ft | 543 kts | 77° |
| 2026-05-06 18:31 | 30.23119 | -91.53844 | 34991 ft | 543 kts | 77° |
| 2026-05-06 18:32 | 30.24690 | -91.45307 | 34997 ft | 543 kts | 77° |
| 2026-05-06 18:32 | 30.26257 | -91.36752 | 34961 ft | 544 kts | 77° |
| 2026-05-06 18:33 | 30.27809 | -91.28244 | 34955 ft | 544 kts | 77° |
| 2026-05-06 18:33 | 30.29364 | -91.19673 | 34964 ft | 544 kts | 77° |
| 2026-05-06 18:34 | 30.30917 | -91.11101 | 34970 ft | 544 kts | 77° |
| 2026-05-06 18:34 | 30.32463 | -91.02523 | 34974 ft | 544 kts | 77° |
| 2026-05-06 18:35 | 30.33989 | -90.94001 | 34986 ft | 544 kts | 77° |
| 2026-05-06 18:35 | 30.35524 | -90.85423 | 34989 ft | 544 kts | 77° |
| 2026-05-06 18:36 | 30.37057 | -90.76842 | 35026 ft | 543 kts | 77° |
| 2026-05-06 18:36 | 30.38575 | -90.68283 | 35051 ft | 543 kts | 77° |
| 2026-05-06 18:37 | 30.39829 | -90.61166 | 35056 ft | 542 kts | 77° |
| 2026-05-06 18:37 | 30.41582 | -90.51232 | 35051 ft | 541 kts | 77° |
| 2026-05-06 18:38 | 30.43079 | -90.42686 | 35030 ft | 541 kts | 77° |
| 2026-05-06 18:38 | 30.44567 | -90.34155 | 35015 ft | 540 kts | 77° |
| 2026-05-06 18:39 | 30.46055 | -90.25622 | 34976 ft | 540 kts | 77° |
| 2026-05-06 18:40 | 30.48740 | -90.13032 | 34988 ft | 538 kts | 71° |
| 2026-05-06 18:40 | 30.50906 | -90.04729 | 34976 ft | 538 kts | 71° |
| 2026-05-06 18:41 | 30.53047 | -89.96417 | 34972 ft | 538 kts | 71° |
| 2026-05-06 18:41 | 30.55134 | -89.88076 | 34978 ft | 538 kts | 71° |
| 2026-05-06 18:42 | 30.57226 | -89.79796 | 34976 ft | 539 kts | 71° |
| 2026-05-06 18:42 | 30.59343 | -89.71451 | 34974 ft | 539 kts | 71° |
| 2026-05-06 18:43 | 30.61443 | -89.63095 | 35000 ft | 539 kts | 71° |
| 2026-05-06 18:43 | 30.63182 | -89.56149 | 34993 ft | 540 kts | 71° |
| 2026-05-06 18:44 | 30.65619 | -89.46416 | 34990 ft | 540 kts | 71° |
| 2026-05-06 18:44 | 30.67712 | -89.38039 | 34995 ft | 540 kts | 71° |
| 2026-05-06 18:45 | 30.69794 | -89.29647 | 34989 ft | 541 kts | 71° |
| 2026-05-06 18:45 | 30.71874 | -89.21245 | 35008 ft | 541 kts | 71° |
| 2026-05-06 18:46 | 30.73938 | -89.12903 | 35015 ft | 541 kts | 71° |
| 2026-05-06 18:46 | 30.76012 | -89.04486 | 34988 ft | 542 kts | 71° |
| 2026-05-06 18:47 | 30.78075 | -88.96062 | 35014 ft | 542 kts | 71° |
| 2026-05-06 18:47 | 30.79790 | -88.89060 | 35021 ft | 542 kts | 71° |
| 2026-05-06 18:48 | 30.81852 | -88.80637 | 35030 ft | 542 kts | 71° |
| 2026-05-06 18:48 | 30.84233 | -88.70839 | 35041 ft | 542 kts | 72° |
| 2026-05-06 18:49 | 30.85947 | -88.63770 | 35047 ft | 541 kts | 72° |
| 2026-05-06 18:49 | 30.87979 | -88.55390 | 35052 ft | 541 kts | 72° |
| 2026-05-06 18:50 | 30.90014 | -88.46952 | 35056 ft | 541 kts | 72° |
| 2026-05-06 18:50 | 30.92085 | -88.38525 | 35053 ft | 540 kts | 68° |
| 2026-05-06 18:51 | 30.95327 | -88.30730 | 35034 ft | 533 kts | 55° |
| 2026-05-06 18:51 | 30.99096 | -88.23309 | 35035 ft | 532 kts | 54° |
| 2026-05-06 18:52 | 31.02779 | -88.15883 | 35038 ft | 533 kts | 56° |
| 2026-05-06 18:52 | 31.06380 | -88.08309 | 35016 ft | 534 kts | 56° |
| 2026-05-06 18:53 | 31.10045 | -88.00777 | 35024 ft | 534 kts | 55° |
| 2026-05-06 18:53 | 31.13730 | -87.93255 | 35030 ft | 534 kts | 55° |
| 2026-05-06 18:54 | 31.17343 | -87.85757 | 35087 ft | 533 kts | 55° |
| 2026-05-06 18:54 | 31.20978 | -87.78211 | 35094 ft | 533 kts | 55° |
| 2026-05-06 18:55 | 31.24622 | -87.70667 | 35064 ft | 533 kts | 55° |
| 2026-05-06 18:55 | 31.28264 | -87.63105 | 35025 ft | 534 kts | 55° |
| 2026-05-06 18:56 | 31.32224 | -87.55836 | 35025 ft | 524 kts | 44° |
| 2026-05-06 18:56 | 31.36870 | -87.49366 | 35018 ft | 522 kts | 41° |
| 2026-05-06 18:57 | 31.41634 | -87.42948 | 35028 ft | 523 kts | 42° |
| 2026-05-06 18:57 | 31.46308 | -87.36407 | 35030 ft | 524 kts | 43° |
| 2026-05-06 18:58 | 31.50976 | -87.29842 | 35035 ft | 524 kts | 43° |
| 2026-05-06 18:58 | 31.55646 | -87.23376 | 35087 ft | 523 kts | 43° |
| 2026-05-06 18:59 | 31.60329 | -87.16850 | 35098 ft | 523 kts | 43° |
| 2026-05-06 18:59 | 31.64994 | -87.10304 | 35099 ft | 523 kts | 43° |
| 2026-05-06 19:00 | 31.69666 | -87.03763 | 35096 ft | 523 kts | 43° |
| 2026-05-06 19:00 | 31.74300 | -86.97264 | 35096 ft | 522 kts | 43° |
| 2026-05-06 19:01 | 31.78959 | -86.90715 | 35078 ft | 522 kts | 43° |
| 2026-05-06 19:01 | 31.83609 | -86.84164 | 35090 ft | 521 kts | 43° |
| 2026-05-06 19:02 | 31.88254 | -86.77610 | 35061 ft | 521 kts | 43° |
| 2026-05-06 19:02 | 31.92864 | -86.71096 | 35032 ft | 522 kts | 43° |
| 2026-05-06 19:03 | 31.97505 | -86.64532 | 35006 ft | 522 kts | 43° |
| 2026-05-06 19:03 | 32.02144 | -86.57954 | 35002 ft | 522 kts | 43° |
| 2026-05-06 19:04 | 32.06774 | -86.51367 | 35006 ft | 522 kts | 43° |
| 2026-05-06 19:04 | 32.11416 | -86.44767 | 35004 ft | 523 kts | 43° |
| 2026-05-06 19:05 | 32.16022 | -86.38199 | 35049 ft | 523 kts | 43° |
| 2026-05-06 19:05 | 32.20651 | -86.31584 | 35092 ft | 522 kts | 43° |
| 2026-05-06 19:06 | 32.25280 | -86.24965 | 35097 ft | 523 kts | 43° |
| 2026-05-06 19:06 | 32.29875 | -86.18381 | 35076 ft | 523 kts | 43° |
| 2026-05-06 19:07 | 32.34500 | -86.11741 | 35081 ft | 523 kts | 43° |
| 2026-05-06 19:07 | 32.39116 | -86.05102 | 35065 ft | 523 kts | 43° |
| 2026-05-06 19:08 | 32.43733 | -85.98451 | 35047 ft | 523 kts | 43° |
| 2026-05-06 19:08 | 32.48337 | -85.91806 | 35083 ft | 521 kts | 43° |
| 2026-05-06 19:09 | 32.52898 | -85.85206 | 35061 ft | 521 kts | 43° |
| 2026-05-06 19:09 | 32.57493 | -85.78555 | 35021 ft | 522 kts | 43° |
| 2026-05-06 19:10 | 32.62087 | -85.71892 | 35020 ft | 522 kts | 43° |
| 2026-05-06 19:10 | 32.66679 | -85.65218 | 35028 ft | 522 kts | 43° |
| 2026-05-06 19:11 | 32.71240 | -85.58571 | 35041 ft | 523 kts | 43° |
| 2026-05-06 19:11 | 32.75834 | -85.51874 | 35060 ft | 523 kts | 43° |
| 2026-05-06 19:12 | 32.80429 | -85.45161 | 35078 ft | 523 kts | 43° |
| 2026-05-06 19:12 | 32.85011 | -85.38442 | 35110 ft | 523 kts | 43° |
| 2026-05-06 19:13 | 32.89592 | -85.31715 | 35112 ft | 523 kts | 43° |
| 2026-05-06 19:13 | 32.94147 | -85.25032 | 35090 ft | 524 kts | 43° |
| 2026-05-06 19:14 | 32.98732 | -85.18284 | 35070 ft | 524 kts | 43° |
| 2026-05-06 19:14 | 33.03312 | -85.11528 | 35046 ft | 524 kts | 43° |
| 2026-05-06 19:15 | 33.07891 | -85.04760 | 35035 ft | 524 kts | 44° |
| 2026-05-06 19:15 | 33.12431 | -84.98037 | 35041 ft | 524 kts | 43° |
| 2026-05-06 19:16 | 33.16997 | -84.91273 | 35053 ft | 523 kts | 43° |
| 2026-05-06 19:16 | 33.21557 | -84.84495 | 35044 ft | 524 kts | 43° |
| 2026-05-06 19:17 | 33.26083 | -84.77756 | 35042 ft | 523 kts | 43° |
| 2026-05-06 19:17 | 33.30640 | -84.70958 | 35022 ft | 524 kts | 44° |
| 2026-05-06 19:18 | 33.35198 | -84.64147 | 35017 ft | 525 kts | 44° |
| 2026-05-06 19:18 | 33.39764 | -84.57327 | 35034 ft | 525 kts | 44° |
| 2026-05-06 19:19 | 33.44319 | -84.50495 | 35050 ft | 525 kts | 44° |
| 2026-05-06 19:19 | 33.48838 | -84.43704 | 35061 ft | 525 kts | 44° |
| 2026-05-06 19:20 | 33.53389 | -84.36853 | 35038 ft | 526 kts | 44° |
| 2026-05-06 19:20 | 33.57943 | -84.29977 | 35033 ft | 527 kts | 44° |
| 2026-05-06 19:21 | 33.62493 | -84.23092 | 35037 ft | 527 kts | 44° |
| 2026-05-06 19:21 | 33.67024 | -84.16256 | 35048 ft | 527 kts | 44° |
| 2026-05-06 19:22 | 33.71569 | -84.09356 | 35079 ft | 526 kts | 44° |
| 2026-05-06 19:22 | 33.76104 | -84.02450 | 35046 ft | 527 kts | 44° |
| 2026-05-06 19:23 | 33.80650 | -83.95541 | 35006 ft | 527 kts | 44° |
| 2026-05-06 19:23 | 33.85160 | -83.88667 | 35004 ft | 527 kts | 44° |
| 2026-05-06 19:24 | 33.89681 | -83.81723 | 35011 ft | 528 kts | 45° |
| 2026-05-06 19:24 | 33.94089 | -83.74627 | 35032 ft | 529 kts | 46° |
| 2026-05-06 19:25 | 33.98458 | -83.67489 | 35066 ft | 529 kts | 46° |
| 2026-05-06 19:25 | 34.02799 | -83.60426 | 35107 ft | 528 kts | 46° |
| 2026-05-06 19:26 | 34.07171 | -83.53314 | 35073 ft | 528 kts | 46° |
| 2026-05-06 19:26 | 34.11522 | -83.46178 | 35032 ft | 528 kts | 46° |
| 2026-05-06 19:27 | 34.15876 | -83.39046 | 35000 ft | 528 kts | 46° |
| 2026-05-06 19:27 | 34.20205 | -83.31951 | 35002 ft | 528 kts | 46° |
| 2026-05-06 19:28 | 34.24560 | -83.24796 | 35018 ft | 528 kts | 46° |
| 2026-05-06 19:28 | 34.28908 | -83.17632 | 35043 ft | 528 kts | 46° |
| 2026-05-06 19:29 | 34.33246 | -83.10461 | 35062 ft | 528 kts | 46° |
| 2026-05-06 19:29 | 34.37583 | -83.03293 | 35073 ft | 527 kts | 46° |
| 2026-05-06 19:30 | 34.41877 | -82.96179 | 35074 ft | 526 kts | 46° |
| 2026-05-06 19:30 | 34.46186 | -82.89019 | 35038 ft | 526 kts | 46° |
| 2026-05-06 19:31 | 34.50487 | -82.81850 | 34998 ft | 526 kts | 46° |
| 2026-05-06 19:31 | 34.56935 | -82.71098 | 34995 ft | 525 kts | 46° |
| 2026-05-06 19:32 | 34.61190 | -82.63985 | 35007 ft | 524 kts | 46° |
| 2026-05-06 19:32 | 34.65468 | -82.56809 | 34992 ft | 524 kts | 46° |
| 2026-05-06 19:33 | 34.69737 | -82.49626 | 34991 ft | 524 kts | 46° |
| 2026-05-06 19:33 | 34.74011 | -82.42441 | 35004 ft | 524 kts | 46° |
| 2026-05-06 19:34 | 34.78243 | -82.35306 | 35025 ft | 524 kts | 46° |
| 2026-05-06 19:34 | 34.82516 | -82.28114 | 34999 ft | 525 kts | 47° |
| 2026-05-06 19:35 | 34.86778 | -82.20883 | 34984 ft | 526 kts | 47° |
| 2026-05-06 19:35 | 34.91040 | -82.13644 | 35001 ft | 526 kts | 47° |
| 2026-05-06 19:36 | 34.95300 | -82.06405 | 35020 ft | 526 kts | 47° |
| 2026-05-06 19:36 | 34.99524 | -81.99205 | 35030 ft | 526 kts | 47° |
| 2026-05-06 19:37 | 35.03793 | -81.91965 | 35022 ft | 524 kts | 46° |
| 2026-05-06 19:37 | 35.08179 | -81.84886 | 35071 ft | 522 kts | 45° |
| 2026-05-06 19:38 | 35.12560 | -81.77838 | 35062 ft | 521 kts | 45° |
| 2026-05-06 19:38 | 35.16891 | -81.70834 | 35038 ft | 520 kts | 45° |
| 2026-05-06 19:39 | 35.21241 | -81.63785 | 34997 ft | 519 kts | 45° |
| 2026-05-06 19:39 | 35.25584 | -81.56736 | 34965 ft | 519 kts | 45° |
| 2026-05-06 19:40 | 35.29920 | -81.49681 | 34968 ft | 519 kts | 45° |
| 2026-05-06 19:40 | 35.34234 | -81.42668 | 34968 ft | 520 kts | 45° |
| 2026-05-06 19:41 | 35.38577 | -81.35567 | 34963 ft | 521 kts | 46° |
| 2026-05-06 19:41 | 35.42925 | -81.28439 | 34966 ft | 523 kts | 45° |
| 2026-05-06 19:42 | 35.47280 | -81.21309 | 35020 ft | 522 kts | 45° |
| 2026-05-06 19:42 | 35.51629 | -81.14175 | 35055 ft | 522 kts | 45° |
| 2026-05-06 19:43 | 35.55939 | -81.07073 | 35054 ft | 522 kts | 45° |
| 2026-05-06 19:43 | 35.60269 | -80.99919 | 35052 ft | 521 kts | 45° |
| 2026-05-06 19:44 | 35.64586 | -80.92777 | 35050 ft | 520 kts | 45° |
| 2026-05-06 19:44 | 35.68893 | -80.85648 | 35017 ft | 519 kts | 45° |
| 2026-05-06 19:45 | 35.73189 | -80.78518 | 34970 ft | 519 kts | 45° |
| 2026-05-06 19:45 | 35.77450 | -80.71427 | 34954 ft | 518 kts | 45° |
| 2026-05-06 19:46 | 35.81734 | -80.64287 | 34949 ft | 519 kts | 45° |
| 2026-05-06 19:46 | 35.86021 | -80.57126 | 34954 ft | 519 kts | 45° |
| 2026-05-06 19:47 | 35.90310 | -80.49950 | 34947 ft | 520 kts | 45° |
| 2026-05-06 19:47 | 35.94592 | -80.42770 | 34971 ft | 519 kts | 45° |
| 2026-05-06 19:48 | 35.98834 | -80.35637 | 35024 ft | 518 kts | 45° |
| 2026-05-06 19:48 | 36.03109 | -80.28468 | 35000 ft | 518 kts | 45° |
| 2026-05-06 19:49 | 36.07384 | -80.21289 | 34953 ft | 519 kts | 45° |
| 2026-05-06 19:49 | 36.11656 | -80.14087 | 34926 ft | 520 kts | 45° |
| 2026-05-06 19:50 | 36.15928 | -80.06871 | 34933 ft | 519 kts | 45° |
| 2026-05-06 19:50 | 36.20192 | -79.99651 | 34933 ft | 519 kts | 45° |
| 2026-05-06 19:51 | 36.24425 | -79.92468 | 34934 ft | 520 kts | 45° |
| 2026-05-06 19:51 | 36.28690 | -79.85236 | 34926 ft | 520 kts | 45° |
| 2026-05-06 19:52 | 36.32949 | -79.77976 | 34920 ft | 521 kts | 46° |
| 2026-05-06 19:52 | 36.37207 | -79.70699 | 34935 ft | 521 kts | 46° |
| 2026-05-06 19:53 | 36.41474 | -79.63418 | 34915 ft | 522 kts | 46° |
| 2026-05-06 19:53 | 36.45701 | -79.56170 | 34955 ft | 521 kts | 46° |
| 2026-05-06 19:54 | 36.49948 | -79.48858 | 34932 ft | 522 kts | 46° |
| 2026-05-06 19:54 | 36.54214 | -79.41529 | 34897 ft | 524 kts | 46° |
| 2026-05-06 19:55 | 36.58476 | -79.34182 | 34902 ft | 524 kts | 46° |
| 2026-05-06 19:55 | 36.62725 | -79.26819 | 34957 ft | 523 kts | 46° |
| 2026-05-06 19:56 | 36.66973 | -79.19475 | 34962 ft | 523 kts | 46° |
| 2026-05-06 19:56 | 36.71188 | -79.12165 | 34924 ft | 523 kts | 47° |
| 2026-05-06 19:57 | 36.75429 | -79.04778 | 34889 ft | 524 kts | 47° |
| 2026-05-06 19:57 | 36.79671 | -78.97370 | 34884 ft | 525 kts | 47° |
| 2026-05-06 19:58 | 36.83913 | -78.89968 | 34892 ft | 525 kts | 47° |
| 2026-05-06 19:58 | 36.88130 | -78.82517 | 34890 ft | 526 kts | 48° |
| 2026-05-06 19:59 | 36.92339 | -78.75041 | 34889 ft | 526 kts | 47° |
| 2026-05-06 19:59 | 36.96532 | -78.67618 | 34922 ft | 526 kts | 47° |
| 2026-05-06 20:00 | 37.00757 | -78.60140 | 34908 ft | 527 kts | 48° |
| 2026-05-06 20:00 | 37.04968 | -78.52642 | 34940 ft | 526 kts | 48° |
| 2026-05-06 20:01 | 37.09169 | -78.45132 | 34945 ft | 526 kts | 48° |
| 2026-05-06 20:01 | 37.13377 | -78.37620 | 34913 ft | 527 kts | 48° |
| 2026-05-06 20:02 | 37.17580 | -78.30087 | 34872 ft | 528 kts | 48° |
| 2026-05-06 20:02 | 37.21548 | -78.22376 | 34863 ft | 533 kts | 54° |
| 2026-05-06 20:03 | 37.25160 | -78.14235 | 34860 ft | 535 kts | 56° |
| 2026-05-06 20:03 | 37.28741 | -78.06042 | 34861 ft | 535 kts | 55° |
| 2026-05-06 20:04 | 37.32378 | -77.97871 | 34869 ft | 536 kts | 55° |
| 2026-05-06 20:04 | 37.36004 | -77.89676 | 34900 ft | 537 kts | 55° |
| 2026-05-06 20:05 | 37.39577 | -77.81518 | 34959 ft | 536 kts | 55° |
| 2026-05-06 20:05 | 37.43182 | -77.73316 | 34965 ft | 536 kts | 55° |
| 2026-05-06 20:06 | 37.46783 | -77.65106 | 34957 ft | 536 kts | 56° |
| 2026-05-06 20:06 | 37.50364 | -77.56876 | 34925 ft | 536 kts | 56° |
| 2026-05-06 20:07 | 37.53951 | -77.48644 | 34885 ft | 536 kts | 56° |
| 2026-05-06 20:07 | 37.57537 | -77.40398 | 34879 ft | 536 kts | 56° |
| 2026-05-06 20:08 | 37.61110 | -77.32159 | 34932 ft | 535 kts | 56° |
| 2026-05-06 20:08 | 37.64646 | -77.23977 | 34908 ft | 535 kts | 56° |
| 2026-05-06 20:09 | 37.68449 | -77.15979 | 34918 ft | 524 kts | 44° |
| 2026-05-06 20:09 | 37.70885 | -77.12650 | 34931 ft | 510 kts | 33° |
| 2026-05-06 20:09 | 37.73679 | -77.10022 | 34915 ft | 493 kts | 21° |
| 2026-05-06 20:10 | 37.79670 | -77.06001 | 34889 ft | 486 kts | 17° |
| 2026-05-06 20:10 | 37.85674 | -77.02023 | 34850 ft | 489 kts | 18° |
| 2026-05-06 20:11 | 37.91622 | -76.97806 | 34857 ft | 491 kts | 19° |
| 2026-05-06 20:11 | 37.97590 | -76.93610 | 34851 ft | 491 kts | 18° |
| 2026-05-06 20:12 | 38.03558 | -76.89500 | 34851 ft | 492 kts | 18° |
| 2026-05-06 20:12 | 38.09579 | -76.85304 | 34844 ft | 495 kts | 19° |
| 2026-05-06 20:13 | 38.15623 | -76.81063 | 34840 ft | 498 kts | 19° |
| 2026-05-06 20:13 | 38.21703 | -76.76814 | 34833 ft | 500 kts | 19° |
| 2026-05-06 20:14 | 38.27537 | -76.71763 | 34848 ft | 516 kts | 31° |
| 2026-05-06 20:14 | 38.32945 | -76.65815 | 34909 ft | 518 kts | 33° |
| 2026-05-06 20:15 | 38.38376 | -76.59798 | 34917 ft | 516 kts | 31° |
| 2026-05-06 20:15 | 38.43877 | -76.53932 | 34920 ft | 515 kts | 31° |
| 2026-05-06 20:16 | 38.49371 | -76.48066 | 34923 ft | 514 kts | 31° |
| 2026-05-06 20:16 | 38.54831 | -76.42169 | 34910 ft | 514 kts | 31° |
| 2026-05-06 20:17 | 38.60260 | -76.36326 | 34872 ft | 514 kts | 31° |
| 2026-05-06 20:17 | 38.65727 | -76.30438 | 34831 ft | 514 kts | 31° |
| 2026-05-06 20:18 | 38.71189 | -76.24522 | 34827 ft | 514 kts | 31° |
| 2026-05-06 20:18 | 38.76657 | -76.18591 | 34825 ft | 515 kts | 32° |
| 2026-05-06 20:19 | 38.82133 | -76.12645 | 34824 ft | 516 kts | 31° |
| 2026-05-06 20:19 | 38.87574 | -76.06723 | 34871 ft | 516 kts | 31° |
| 2026-05-06 20:20 | 38.93041 | -76.00752 | 34914 ft | 516 kts | 31° |
| 2026-05-06 20:20 | 38.98443 | -75.94649 | 34911 ft | 518 kts | 34° |
| 2026-05-06 20:21 | 39.03720 | -75.88355 | 34903 ft | 516 kts | 34° |
| 2026-05-06 20:21 | 39.08963 | -75.82074 | 34883 ft | 514 kts | 34° |
| 2026-05-06 20:22 | 39.14202 | -75.75839 | 34843 ft | 512 kts | 34° |
| 2026-05-06 20:22 | 39.19375 | -75.69643 | 34802 ft | 511 kts | 34° |
| 2026-05-06 20:23 | 39.24573 | -75.63405 | 34795 ft | 510 kts | 34° |
| 2026-05-06 20:23 | 39.29772 | -75.57157 | 34797 ft | 511 kts | 34° |
| 2026-05-06 20:24 | 39.34977 | -75.50887 | 34793 ft | 512 kts | 34° |
| 2026-05-06 20:24 | 39.40195 | -75.44590 | 34800 ft | 514 kts | 34° |
| 2026-05-06 20:25 | 39.45387 | -75.38306 | 34801 ft | 516 kts | 34° |
| 2026-05-06 20:25 | 39.50630 | -75.31948 | 34808 ft | 517 kts | 34° |
| 2026-05-06 20:26 | 39.55873 | -75.25565 | 34870 ft | 517 kts | 34° |
| 2026-05-06 20:26 | 39.61117 | -75.19190 | 34888 ft | 517 kts | 34° |
| 2026-05-06 20:27 | 39.66357 | -75.12792 | 34883 ft | 517 kts | 34° |
| 2026-05-06 20:27 | 39.71705 | -75.06619 | 34883 ft | 513 kts | 32° |
| 2026-05-06 20:28 | 39.77111 | -75.00582 | 34862 ft | 512 kts | 32° |
| 2026-05-06 20:28 | 39.82463 | -74.94566 | 34877 ft | 511 kts | 32° |
| 2026-05-06 20:29 | 39.87810 | -74.88485 | 34860 ft | 510 kts | 32° |
| 2026-05-06 20:29 | 39.93353 | -74.82860 | 34819 ft | 501 kts | 26° |
| 2026-05-06 20:30 | 40.01913 | -74.75076 | 34793 ft | 502 kts | 26° |
| 2026-05-06 20:30 | 40.04611 | -74.72105 | 34778 ft | 514 kts | 36° |
| 2026-05-06 20:31 | 40.07081 | -74.68705 | 34798 ft | 518 kts | 39° |
| 2026-05-06 20:31 | 40.11821 | -74.61647 | 34789 ft | 521 kts | 41° |
| 2026-05-06 20:32 | 40.16641 | -74.54591 | 34808 ft | 520 kts | 39° |
| 2026-05-06 20:32 | 40.21699 | -74.47930 | 34865 ft | 509 kts | 31° |
| 2026-05-06 20:33 | 40.27162 | -74.42060 | 34875 ft | 507 kts | 30° |
| 2026-05-06 20:33 | 40.32660 | -74.36272 | 34868 ft | 507 kts | 30° |
| 2026-05-06 20:34 | 40.38081 | -74.30460 | 34845 ft | 507 kts | 30° |
| 2026-05-06 20:34 | 40.43517 | -74.24574 | 34804 ft | 506 kts | 30° |
| 2026-05-06 20:35 | 40.48969 | -74.18714 | 34771 ft | 506 kts | 30° |
| 2026-05-06 20:35 | 40.54099 | -74.12243 | 34773 ft | 523 kts | 46° |
| 2026-05-06 20:35 | 40.56030 | -74.08138 | 34782 ft | 534 kts | 59° |
| 2026-05-06 20:36 | 40.57339 | -74.03532 | 34795 ft | 540 kts | 70° |
| 2026-05-06 20:36 | 40.59380 | -73.93996 | 34784 ft | 543 kts | 72° |
| 2026-05-06 20:37 | 40.61509 | -73.84479 | 34580 ft | 541 kts | 70° |
| 2026-05-06 20:37 | 40.62788 | -73.79850 | 34129 ft | 536 kts | 62° |
| 2026-05-06 20:37 | 40.64520 | -73.75625 | 33638 ft | 528 kts | 51° |
| 2026-05-06 20:37 | 40.66747 | -73.71841 | 33152 ft | 519 kts | 43° |
| 2026-05-06 20:38 | 40.69173 | -73.68327 | 32662 ft | 517 kts | 41° |
| 2026-05-06 20:38 | 40.71640 | -73.64881 | 32167 ft | 517 kts | 41° |
| 2026-05-06 20:38 | 40.74100 | -73.61418 | 31672 ft | 518 kts | 42° |
| 2026-05-06 20:38 | 40.76524 | -73.57898 | 31177 ft | 519 kts | 43° |
| 2026-05-06 20:39 | 40.78921 | -73.54323 | 30682 ft | 520 kts | 44° |
| 2026-05-06 20:39 | 40.81155 | -73.50544 | 30172 ft | 525 kts | 53° |
| 2026-05-06 20:39 | 40.83093 | -73.46441 | 29691 ft | 528 kts | 57° |
| 2026-05-06 20:39 | 40.84935 | -73.42244 | 29224 ft | 529 kts | 58° |
| 2026-05-06 20:40 | 40.86731 | -73.38071 | 28832 ft | 530 kts | 58° |
| 2026-05-06 20:40 | 40.88582 | -73.33848 | 28455 ft | 531 kts | 58° |
| 2026-05-06 20:40 | 40.90483 | -73.29656 | 28083 ft | 531 kts | 57° |
| 2026-05-06 20:40 | 40.92398 | -73.25528 | 27680 ft | 524 kts | 56° |
| 2026-05-06 20:41 | 40.94298 | -73.21421 | 27288 ft | 524 kts | 57° |
| 2026-05-06 20:41 | 40.96168 | -73.17294 | 26888 ft | 521 kts | 58° |
| 2026-05-06 20:41 | 40.98002 | -73.13178 | 26491 ft | 518 kts | 58° |
| 2026-05-06 20:41 | 40.99820 | -73.09086 | 26095 ft | 515 kts | 58° |
| 2026-05-06 20:42 | 41.01025 | -73.06389 | 25831 ft | 512 kts | 58° |
| 2026-05-06 20:42 | 41.02840 | -73.02343 | 25435 ft | 509 kts | 58° |
| 2026-05-06 20:42 | 41.04647 | -72.98329 | 25037 ft | 506 kts | 58° |
| 2026-05-06 20:42 | 41.06441 | -72.94341 | 24639 ft | 502 kts | 58° |
| 2026-05-06 20:43 | 41.08209 | -72.90384 | 24265 ft | 494 kts | 58° |
| 2026-05-06 20:43 | 41.09938 | -72.86496 | 23919 ft | 486 kts | 58° |
| 2026-05-06 20:43 | 41.11655 | -72.82641 | 23585 ft | 484 kts | 58° |
| 2026-05-06 20:43 | 41.13914 | -72.77570 | 23195 ft | 481 kts | 58° |
| 2026-05-06 20:44 | 41.15059 | -72.74995 | 22994 ft | 479 kts | 58° |
| 2026-05-06 20:44 | 41.16749 | -72.71190 | 22696 ft | 477 kts | 58° |
| 2026-05-06 20:44 | 41.18408 | -72.67452 | 22403 ft | 476 kts | 58° |
| 2026-05-06 20:44 | 41.20084 | -72.63671 | 22106 ft | 475 kts | 59° |
| 2026-05-06 20:45 | 41.21751 | -72.59905 | 21807 ft | 472 kts | 59° |
| 2026-05-06 20:45 | 41.23403 | -72.56153 | 21510 ft | 470 kts | 59° |
| 2026-05-06 20:45 | 41.25051 | -72.52404 | 21212 ft | 469 kts | 59° |
| 2026-05-06 20:45 | 41.26696 | -72.48667 | 20914 ft | 467 kts | 59° |
| 2026-05-06 20:46 | 41.28337 | -72.44948 | 20617 ft | 466 kts | 59° |
| 2026-05-06 20:46 | 41.29977 | -72.41234 | 20318 ft | 465 kts | 59° |
| 2026-05-06 20:46 | 41.31607 | -72.37537 | 20020 ft | 463 kts | 59° |
| 2026-05-06 20:46 | 41.33230 | -72.33842 | 19723 ft | 462 kts | 59° |
| 2026-05-06 20:47 | 41.34844 | -72.30151 | 19425 ft | 461 kts | 59° |
| 2026-05-06 20:47 | 41.36452 | -72.26469 | 19126 ft | 459 kts | 59° |
| 2026-05-06 20:47 | 41.38057 | -72.22797 | 18828 ft | 458 kts | 59° |
| 2026-05-06 20:47 | 41.39638 | -72.19177 | 18534 ft | 458 kts | 59° |
| 2026-05-06 20:48 | 41.41235 | -72.15519 | 18236 ft | 456 kts | 60° |
| 2026-05-06 20:48 | 41.42825 | -72.11867 | 17938 ft | 455 kts | 60° |
| 2026-05-06 20:48 | 41.44409 | -72.08217 | 17640 ft | 454 kts | 60° |
| 2026-05-06 20:48 | 41.45987 | -72.04574 | 17341 ft | 453 kts | 60° |
| 2026-05-06 20:49 | 41.47560 | -72.00948 | 17043 ft | 451 kts | 60° |
| 2026-05-06 20:49 | 41.49121 | -71.97341 | 16744 ft | 448 kts | 61° |
| 2026-05-06 20:49 | 41.50677 | -71.93751 | 16446 ft | 446 kts | 61° |
| 2026-05-06 20:49 | 41.52222 | -71.90177 | 16150 ft | 444 kts | 61° |
| 2026-05-06 20:50 | 41.53759 | -71.86610 | 16010 ft | 443 kts | 61° |
| 2026-05-06 20:50 | 41.55295 | -71.83042 | 16010 ft | 443 kts | 61° |
| 2026-05-06 20:50 | 41.56811 | -71.79523 | 16010 ft | 443 kts | 61° |
| 2026-05-06 20:50 | 41.58348 | -71.75958 | 16012 ft | 443 kts | 61° |
| 2026-05-06 20:51 | 41.59887 | -71.72391 | 16012 ft | 443 kts | 62° |
| 2026-05-06 20:51 | 41.61419 | -71.68823 | 16012 ft | 443 kts | 62° |
| 2026-05-06 20:51 | 41.62947 | -71.65246 | 16008 ft | 443 kts | 62° |
| 2026-05-06 20:51 | 41.64471 | -71.61669 | 15815 ft | 441 kts | 62° |
| 2026-05-06 20:52 | 41.65973 | -71.58154 | 15478 ft | 430 kts | 62° |
| 2026-05-06 20:52 | 41.67447 | -71.54725 | 15176 ft | 420 kts | 62° |
| 2026-05-06 20:52 | 41.68877 | -71.51372 | 14877 ft | 411 kts | 62° |
| 2026-05-06 20:52 | 41.70273 | -71.48086 | 14585 ft | 402 kts | 63° |
| 2026-05-06 20:53 | 41.71619 | -71.44918 | 14316 ft | 393 kts | 63° |
| 2026-05-06 20:53 | 41.72962 | -71.41765 | 14023 ft | 386 kts | 63° |
| 2026-05-06 20:53 | 41.74287 | -71.38673 | 13733 ft | 380 kts | 63° |
| 2026-05-06 20:53 | 41.75594 | -71.35622 | 13431 ft | 375 kts | 63° |
| 2026-05-06 20:54 | 41.76881 | -71.32613 | 13136 ft | 370 kts | 63° |
| 2026-05-06 20:54 | 41.78150 | -71.29642 | 12837 ft | 366 kts | 64° |
| 2026-05-06 20:54 | 41.79401 | -71.26695 | 12531 ft | 362 kts | 64° |
| 2026-05-06 20:54 | 41.80638 | -71.23778 | 12230 ft | 359 kts | 64° |
| 2026-05-06 20:55 | 41.81868 | -71.20890 | 12047 ft | 356 kts | 64° |
| 2026-05-06 20:55 | 41.83095 | -71.18013 | 12015 ft | 356 kts | 64° |
| 2026-05-06 20:55 | 41.84323 | -71.15132 | 12013 ft | 356 kts | 64° |
| 2026-05-06 20:55 | 41.85544 | -71.12243 | 12010 ft | 356 kts | 64° |
| 2026-05-06 20:56 | 41.86768 | -71.09362 | 12010 ft | 355 kts | 64° |